EPWR

Copernicus Wrocław Airport

Wrocław, Poland

EPWR 240000Z 24005KT CAVOK 16/14 Q1014

Observed Flight Rules
Jun-24 @ 00:00 UTC (12 minutes ago)
 
Visual Flight Rules
Wind Visibility Clouds
240° at 5 knots 10,000+ meters
  • Clear skies
Temperatures Readings
Current 16°C / 61°F
Dewpoint 14°C / 57°F
Humidity 88%
Altimeter 29.94" Hg
Pressure 1014 hPa
Observed Flight Rules
Jun-24 @ 00:00 UTC
(12 minutes ago)
 
VFR
Wind Visibility
240° at 5 knots 10,000+ meters
Clouds
  • Clear skies
Temperature Dewpoint
16°C / 61°F 14°C / 57°F
Humidity Altimeter Pressure
88% 29.94" Hg 1014 hPa